sensor_id;sensor_type;location;lat;lon;timestamp;P1;durP1;ratioP1;P2;durP2;ratioP2
20287;SDS011;10303;51.960;8.372;2022-08-27T00:01:08;2.83;;;2.20;;
20287;SDS011;10303;51.960;8.372;2022-08-27T00:03:35;2.90;;;2.20;;
20287;SDS011;10303;51.960;8.372;2022-08-27T00:06:02;2.72;;;2.28;;
20287;SDS011;10303;51.960;8.372;2022-08-27T00:08:28;3.35;;;1.70;;
20287;SDS011;10303;51.960;8.372;2022-08-27T00:10:55;3.08;;;2.22;;
20287;SDS011;10303;51.960;8.372;2022-08-27T00:13:21;3.33;;;2.17;;
20287;SDS011;10303;51.960;8.372;2022-08-27T00:15:47;2.70;;;2.50;;
20287;SDS011;10303;51.960;8.372;2022-08-27T00:18:13;2.95;;;2.67;;
20287;SDS011;10303;51.960;8.372;2022-08-27T00:20:39;2.28;;;2.08;;
20287;SDS011;10303;51.960;8.372;2022-08-27T00:23:05;3.87;;;2.37;;
20287;SDS011;10303;51.960;8.372;2022-08-27T00:25:31;2.58;;;2.15;;
20287;SDS011;10303;51.960;8.372;2022-08-27T00:27:57;2.67;;;1.95;;
20287;SDS011;10303;51.960;8.372;2022-08-27T00:30:23;3.03;;;2.13;;
20287;SDS011;10303;51.960;8.372;2022-08-27T00:32:49;1.88;;;1.77;;
20287;SDS011;10303;51.960;8.372;2022-08-27T00:35:17;3.40;;;2.47;;
20287;SDS011;10303;51.960;8.372;2022-08-27T00:37:44;6.18;;;2.85;;
20287;SDS011;10303;51.960;8.372;2022-08-27T00:40:12;3.38;;;2.25;;
20287;SDS011;10303;51.960;8.372;2022-08-27T00:42:44;2.17;;;2.08;;
20287;SDS011;10303;51.960;8.372;2022-08-27T00:45:11;2.65;;;2.42;;
20287;SDS011;10303;51.960;8.372;2022-08-27T00:47:43;3.63;;;2.27;;
20287;SDS011;10303;51.960;8.372;2022-08-27T00:53:10;3.57;;;1.97;;
20287;SDS011;10303;51.960;8.372;2022-08-27T00:55:43;2.85;;;2.10;;
20287;SDS011;10303;51.960;8.372;2022-08-27T00:58:30;2.33;;;2.13;;
20287;SDS011;10303;51.960;8.372;2022-08-27T01:01:03;6.53;;;2.23;;
20287;SDS011;10303;51.960;8.372;2022-08-27T01:03:33;4.40;;;2.63;;
20287;SDS011;10303;51.960;8.372;2022-08-27T01:06:00;7.33;;;2.70;;
20287;SDS011;10303;51.960;8.372;2022-08-27T01:08:33;2.43;;;2.23;;
20287;SDS011;10303;51.960;8.372;2022-08-27T01:11:03;5.87;;;1.83;;
20287;SDS011;10303;51.960;8.372;2022-08-27T01:13:31;2.87;;;2.27;;
20287;SDS011;10303;51.960;8.372;2022-08-27T01:15:58;3.37;;;1.70;;
20287;SDS011;10303;51.960;8.372;2022-08-27T01:18:28;2.80;;;2.30;;
20287;SDS011;10303;51.960;8.372;2022-08-27T01:27:03;6.03;;;3.20;;
20287;SDS011;10303;51.960;8.372;2022-08-27T01:29:34;2.07;;;1.43;;
20287;SDS011;10303;51.960;8.372;2022-08-27T01:32:06;2.33;;;1.63;;
20287;SDS011;10303;51.960;8.372;2022-08-27T01:34:47;4.63;;;2.00;;
20287;SDS011;10303;51.960;8.372;2022-08-27T01:37:14;4.10;;;1.97;;
20287;SDS011;10303;51.960;8.372;2022-08-27T01:39:42;3.73;;;2.00;;
20287;SDS011;10303;51.960;8.372;2022-08-27T01:42:16;3.47;;;2.43;;
20287;SDS011;10303;51.960;8.372;2022-08-27T01:44:52;2.20;;;1.93;;
20287;SDS011;10303;51.960;8.372;2022-08-27T01:47:23;3.80;;;1.60;;
20287;SDS011;10303;51.960;8.372;2022-08-27T01:49:51;5.57;;;2.27;;
20287;SDS011;10303;51.960;8.372;2022-08-27T01:52:19;5.60;;;2.60;;
20287;SDS011;10303;51.960;8.372;2022-08-27T01:54:50;3.33;;;1.80;;
20287;SDS011;10303;51.960;8.372;2022-08-27T01:57:17;2.20;;;1.53;;
20287;SDS011;10303;51.960;8.372;2022-08-27T01:59:44;2.93;;;1.77;;
20287;SDS011;10303;51.960;8.372;2022-08-27T02:02:11;8.60;;;2.03;;
20287;SDS011;10303;51.960;8.372;2022-08-27T02:04:41;3.30;;;2.10;;
20287;SDS011;10303;51.960;8.372;2022-08-27T02:07:08;2.40;;;1.73;;
20287;SDS011;10303;51.960;8.372;2022-08-27T02:09:35;2.37;;;1.50;;
20287;SDS011;10303;51.960;8.372;2022-08-27T02:12:02;3.17;;;1.30;;
20287;SDS011;10303;51.960;8.372;2022-08-27T02:14:29;1.63;;;1.40;;
20287;SDS011;10303;51.960;8.372;2022-08-27T02:16:55;1.73;;;1.57;;
20287;SDS011;10303;51.960;8.372;2022-08-27T02:19:21;2.00;;;1.40;;
20287;SDS011;10303;51.960;8.372;2022-08-27T02:21:47;5.60;;;1.53;;
20287;SDS011;10303;51.960;8.372;2022-08-27T02:24:14;3.97;;;2.13;;
20287;SDS011;10303;51.960;8.372;2022-08-27T02:26:41;1.60;;;1.43;;
20287;SDS011;10303;51.960;8.372;2022-08-27T02:29:07;4.27;;;2.43;;
20287;SDS011;10303;51.960;8.372;2022-08-27T02:31:33;5.03;;;1.87;;
20287;SDS011;10303;51.960;8.372;2022-08-27T02:33:59;3.20;;;1.13;;
20287;SDS011;10303;51.960;8.372;2022-08-27T02:36:25;2.43;;;1.20;;
20287;SDS011;10303;51.960;8.372;2022-08-27T02:38:52;2.20;;;1.43;;
20287;SDS011;10303;51.960;8.372;2022-08-27T02:41:20;1.73;;;1.37;;
20287;SDS011;10303;51.960;8.372;2022-08-27T02:43:46;1.43;;;1.30;;
20287;SDS011;10303;51.960;8.372;2022-08-27T02:46:12;1.43;;;1.27;;
20287;SDS011;10303;51.960;8.372;2022-08-27T02:48:39;1.47;;;1.37;;
20287;SDS011;10303;51.960;8.372;2022-08-27T02:51:06;2.20;;;1.80;;
20287;SDS011;10303;51.960;8.372;2022-08-27T02:53:34;1.93;;;1.43;;
20287;SDS011;10303;51.960;8.372;2022-08-27T02:56:02;2.33;;;1.53;;
20287;SDS011;10303;51.960;8.372;2022-08-27T02:58:30;2.93;;;1.00;;
20287;SDS011;10303;51.960;8.372;2022-08-27T03:00:58;1.83;;;1.13;;
20287;SDS011;10303;51.960;8.372;2022-08-27T03:03:28;1.60;;;1.20;;
20287;SDS011;10303;51.960;8.372;2022-08-27T03:05:56;1.90;;;1.70;;
20287;SDS011;10303;51.960;8.372;2022-08-27T03:08:24;1.17;;;0.93;;
20287;SDS011;10303;51.960;8.372;2022-08-27T03:10:51;1.57;;;1.40;;
20287;SDS011;10303;51.960;8.372;2022-08-27T03:13:18;3.60;;;1.10;;
20287;SDS011;10303;51.960;8.372;2022-08-27T03:15:45;3.67;;;1.30;;
20287;SDS011;10303;51.960;8.372;2022-08-27T03:18:11;3.17;;;1.20;;
20287;SDS011;10303;51.960;8.372;2022-08-27T03:20:45;3.93;;;1.40;;
20287;SDS011;10303;51.960;8.372;2022-08-27T03:23:16;1.77;;;1.03;;
20287;SDS011;10303;51.960;8.372;2022-08-27T03:25:51;1.20;;;1.10;;
20287;SDS011;10303;51.960;8.372;2022-08-27T03:28:21;1.53;;;0.93;;
20287;SDS011;10303;51.960;8.372;2022-08-27T03:30:51;1.50;;;1.23;;
20287;SDS011;10303;51.960;8.372;2022-08-27T03:33:23;0.87;;;0.87;;
20287;SDS011;10303;51.960;8.372;2022-08-27T03:35:50;3.77;;;1.27;;
20287;SDS011;10303;51.960;8.372;2022-08-27T03:38:17;2.90;;;1.13;;
20287;SDS011;10303;51.960;8.372;2022-08-27T03:40:43;4.10;;;1.10;;
20287;SDS011;10303;51.960;8.372;2022-08-27T03:43:10;2.30;;;1.00;;
20287;SDS011;10303;51.960;8.372;2022-08-27T03:45:41;2.27;;;1.20;;
20287;SDS011;10303;51.960;8.372;2022-08-27T03:48:09;2.10;;;0.80;;
20287;SDS011;10303;51.960;8.372;2022-08-27T03:50:39;1.60;;;1.10;;
20287;SDS011;10303;51.960;8.372;2022-08-27T03:53:08;2.43;;;0.90;;
20287;SDS011;10303;51.960;8.372;2022-08-27T03:55:35;2.57;;;0.80;;
20287;SDS011;10303;51.960;8.372;2022-08-27T03:58:01;2.00;;;1.03;;
20287;SDS011;10303;51.960;8.372;2022-08-27T04:00:27;3.57;;;1.03;;
20287;SDS011;10303;51.960;8.372;2022-08-27T04:02:53;0.90;;;0.73;;
20287;SDS011;10303;51.960;8.372;2022-08-27T04:05:20;2.30;;;0.77;;
20287;SDS011;10303;51.960;8.372;2022-08-27T04:07:48;2.53;;;0.60;;
20287;SDS011;10303;51.960;8.372;2022-08-27T04:10:14;1.17;;;0.90;;
20287;SDS011;10303;51.960;8.372;2022-08-27T04:12:42;1.57;;;1.10;;
20287;SDS011;10303;51.960;8.372;2022-08-27T04:15:10;1.80;;;0.73;;
20287;SDS011;10303;51.960;8.372;2022-08-27T04:17:37;2.23;;;0.97;;
20287;SDS011;10303;51.960;8.372;2022-08-27T04:20:04;4.87;;;1.10;;
20287;SDS011;10303;51.960;8.372;2022-08-27T04:22:33;2.40;;;0.70;;
20287;SDS011;10303;51.960;8.372;2022-08-27T04:24:59;0.90;;;0.80;;
20287;SDS011;10303;51.960;8.372;2022-08-27T04:27:26;0.63;;;0.63;;
20287;SDS011;10303;51.960;8.372;2022-08-27T04:29:56;0.50;;;0.50;;
20287;SDS011;10303;51.960;8.372;2022-08-27T04:32:25;1.17;;;0.90;;
20287;SDS011;10303;51.960;8.372;2022-08-27T04:34:56;1.37;;;0.93;;
20287;SDS011;10303;51.960;8.372;2022-08-27T04:37:24;2.20;;;0.60;;
20287;SDS011;10303;51.960;8.372;2022-08-27T04:39:54;0.80;;;0.60;;
20287;SDS011;10303;51.960;8.372;2022-08-27T04:42:20;1.40;;;0.50;;
20287;SDS011;10303;51.960;8.372;2022-08-27T04:44:46;4.20;;;0.60;;
20287;SDS011;10303;51.960;8.372;2022-08-27T04:47:13;1.13;;;0.47;;
20287;SDS011;10303;51.960;8.372;2022-08-27T04:49:40;2.23;;;0.73;;
20287;SDS011;10303;51.960;8.372;2022-08-27T04:52:07;0.87;;;0.50;;
20287;SDS011;10303;51.960;8.372;2022-08-27T04:54:34;4.23;;;1.07;;
20287;SDS011;10303;51.960;8.372;2022-08-27T04:57:01;1.27;;;0.60;;
20287;SDS011;10303;51.960;8.372;2022-08-27T04:59:30;1.03;;;0.40;;
20287;SDS011;10303;51.960;8.372;2022-08-27T05:01:59;2.23;;;0.40;;
20287;SDS011;10303;51.960;8.372;2022-08-27T05:04:26;1.73;;;0.60;;
20287;SDS011;10303;51.960;8.372;2022-08-27T05:06:54;1.20;;;0.80;;
20287;SDS011;10303;51.960;8.372;2022-08-27T05:09:21;1.43;;;0.60;;
20287;SDS011;10303;51.960;8.372;2022-08-27T05:11:47;1.63;;;0.60;;
20287;SDS011;10303;51.960;8.372;2022-08-27T05:14:16;1.33;;;0.67;;
20287;SDS011;10303;51.960;8.372;2022-08-27T05:16:43;0.80;;;0.57;;
20287;SDS011;10303;51.960;8.372;2022-08-27T05:19:11;0.77;;;0.77;;
20287;SDS011;10303;51.960;8.372;2022-08-27T05:21:45;1.80;;;0.83;;
20287;SDS011;10303;51.960;8.372;2022-08-27T05:24:14;0.70;;;0.60;;
20287;SDS011;10303;51.960;8.372;2022-08-27T05:26:41;1.40;;;0.60;;
20287;SDS011;10303;51.960;8.372;2022-08-27T05:29:08;1.63;;;0.60;;
20287;SDS011;10303;51.960;8.372;2022-08-27T05:31:34;1.13;;;0.57;;
20287;SDS011;10303;51.960;8.372;2022-08-27T05:34:01;1.93;;;0.50;;
20287;SDS011;10303;51.960;8.372;2022-08-27T05:36:29;1.83;;;0.53;;
20287;SDS011;10303;51.960;8.372;2022-08-27T05:38:59;2.00;;;0.90;;
20287;SDS011;10303;51.960;8.372;2022-08-27T05:41:29;2.67;;;0.83;;
20287;SDS011;10303;51.960;8.372;2022-08-27T05:43:58;1.00;;;0.50;;
20287;SDS011;10303;51.960;8.372;2022-08-27T05:46:27;2.33;;;0.50;;
20287;SDS011;10303;51.960;8.372;2022-08-27T05:48:55;0.40;;;0.40;;
20287;SDS011;10303;51.960;8.372;2022-08-27T05:51:24;0.70;;;0.60;;
20287;SDS011;10303;51.960;8.372;2022-08-27T05:53:59;2.03;;;0.60;;
20287;SDS011;10303;51.960;8.372;2022-08-27T05:56:32;8.07;;;0.80;;
20287;SDS011;10303;51.960;8.372;2022-08-27T05:59:00;1.07;;;0.50;;
20287;SDS011;10303;51.960;8.372;2022-08-27T06:01:47;0.83;;;0.50;;
20287;SDS011;10303;51.960;8.372;2022-08-27T06:04:16;1.63;;;0.60;;
20287;SDS011;10303;51.960;8.372;2022-08-27T06:06:44;2.73;;;0.67;;
20287;SDS011;10303;51.960;8.372;2022-08-27T06:09:14;4.73;;;0.90;;
20287;SDS011;10303;51.960;8.372;2022-08-27T06:11:43;0.80;;;0.70;;
20287;SDS011;10303;51.960;8.372;2022-08-27T06:14:10;1.90;;;0.50;;
20287;SDS011;10303;51.960;8.372;2022-08-27T06:16:37;0.77;;;0.60;;
20287;SDS011;10303;51.960;8.372;2022-08-27T06:19:05;1.17;;;0.60;;
20287;SDS011;10303;51.960;8.372;2022-08-27T06:21:33;1.60;;;1.07;;
20287;SDS011;10303;51.960;8.372;2022-08-27T06:23:59;4.37;;;1.07;;
20287;SDS011;10303;51.960;8.372;2022-08-27T06:26:26;1.37;;;0.70;;
20287;SDS011;10303;51.960;8.372;2022-08-27T06:28:52;2.40;;;0.70;;
20287;SDS011;10303;51.960;8.372;2022-08-27T06:31:23;1.08;;;0.60;;
20287;SDS011;10303;51.960;8.372;2022-08-27T06:33:52;0.55;;;0.55;;
20287;SDS011;10303;51.960;8.372;2022-08-27T06:36:23;0.70;;;0.70;;
20287;SDS011;10303;51.960;8.372;2022-08-27T06:38:51;0.82;;;0.65;;
20287;SDS011;10303;51.960;8.372;2022-08-27T06:41:19;1.05;;;0.50;;
20287;SDS011;10303;51.960;8.372;2022-08-27T06:43:49;1.20;;;0.63;;
20287;SDS011;10303;51.960;8.372;2022-08-27T06:46:18;2.92;;;0.80;;
20287;SDS011;10303;51.960;8.372;2022-08-27T06:48:50;1.02;;;0.75;;
20287;SDS011;10303;51.960;8.372;2022-08-27T06:51:25;0.57;;;0.57;;
20287;SDS011;10303;51.960;8.372;2022-08-27T06:53:55;2.40;;;0.50;;
20287;SDS011;10303;51.960;8.372;2022-08-27T06:56:24;0.50;;;0.47;;
20287;SDS011;10303;51.960;8.372;2022-08-27T06:58:53;2.83;;;1.02;;
20287;SDS011;10303;51.960;8.372;2022-08-27T07:01:24;1.25;;;0.63;;
20287;SDS011;10303;51.960;8.372;2022-08-27T07:03:54;0.90;;;0.60;;
20287;SDS011;10303;51.960;8.372;2022-08-27T07:06:23;2.00;;;0.60;;
20287;SDS011;10303;51.960;8.372;2022-08-27T07:08:51;1.38;;;0.73;;
20287;SDS011;10303;51.960;8.372;2022-08-27T07:11:17;0.90;;;0.70;;
20287;SDS011;10303;51.960;8.372;2022-08-27T07:13:44;1.42;;;0.68;;
20287;SDS011;10303;51.960;8.372;2022-08-27T07:16:13;2.67;;;1.05;;
20287;SDS011;10303;51.960;8.372;2022-08-27T07:18:43;1.25;;;0.93;;
20287;SDS011;10303;51.960;8.372;2022-08-27T07:21:10;0.73;;;0.43;;
20287;SDS011;10303;51.960;8.372;2022-08-27T07:23:36;1.30;;;0.50;;
20287;SDS011;10303;51.960;8.372;2022-08-27T07:26:07;2.37;;;0.90;;
20287;SDS011;10303;51.960;8.372;2022-08-27T07:28:36;3.20;;;0.97;;
20287;SDS011;10303;51.960;8.372;2022-08-27T07:31:07;1.33;;;0.50;;
20287;SDS011;10303;51.960;8.372;2022-08-27T07:33:37;1.53;;;1.13;;
20287;SDS011;10303;51.960;8.372;2022-08-27T07:36:05;0.97;;;0.53;;
20287;SDS011;10303;51.960;8.372;2022-08-27T07:38:32;1.80;;;0.80;;
20287;SDS011;10303;51.960;8.372;2022-08-27T07:40:59;0.90;;;0.90;;
20287;SDS011;10303;51.960;8.372;2022-08-27T07:43:33;1.20;;;0.87;;
20287;SDS011;10303;51.960;8.372;2022-08-27T07:46:17;1.90;;;0.60;;
20287;SDS011;10303;51.960;8.372;2022-08-27T07:48:46;1.80;;;0.63;;
20287;SDS011;10303;51.960;8.372;2022-08-27T07:51:14;0.80;;;0.67;;
20287;SDS011;10303;51.960;8.372;2022-08-27T07:53:43;1.00;;;0.60;;
20287;SDS011;10303;51.960;8.372;2022-08-27T07:56:10;0.77;;;0.43;;
20287;SDS011;10303;51.960;8.372;2022-08-27T07:58:37;2.90;;;0.83;;
20287;SDS011;10303;51.960;8.372;2022-08-27T08:01:03;3.87;;;1.20;;
20287;SDS011;10303;51.960;8.372;2022-08-27T08:03:30;0.73;;;0.50;;
20287;SDS011;10303;51.960;8.372;2022-08-27T08:06:01;1.47;;;0.70;;
20287;SDS011;10303;51.960;8.372;2022-08-27T08:08:35;1.67;;;1.10;;
20287;SDS011;10303;51.960;8.372;2022-08-27T08:11:05;1.63;;;0.87;;
20287;SDS011;10303;51.960;8.372;2022-08-27T08:13:37;1.00;;;0.90;;
20287;SDS011;10303;51.960;8.372;2022-08-27T08:16:04;0.97;;;0.80;;
20287;SDS011;10303;51.960;8.372;2022-08-27T08:18:31;1.70;;;1.00;;
20287;SDS011;10303;51.960;8.372;2022-08-27T08:20:58;2.03;;;0.80;;
20287;SDS011;10303;51.960;8.372;2022-08-27T08:23:29;0.90;;;0.70;;
20287;SDS011;10303;51.960;8.372;2022-08-27T08:25:57;3.13;;;1.17;;
20287;SDS011;10303;51.960;8.372;2022-08-27T08:28:24;2.60;;;1.00;;
20287;SDS011;10303;51.960;8.372;2022-08-27T08:30:52;1.23;;;0.93;;
20287;SDS011;10303;51.960;8.372;2022-08-27T08:33:20;3.00;;;0.97;;
20287;SDS011;10303;51.960;8.372;2022-08-27T08:36:00;1.20;;;0.80;;
20287;SDS011;10303;51.960;8.372;2022-08-27T08:38:37;1.70;;;1.00;;
20287;SDS011;10303;51.960;8.372;2022-08-27T08:41:05;0.73;;;0.50;;
20287;SDS011;10303;51.960;8.372;2022-08-27T08:43:56;1.00;;;0.50;;
20287;SDS011;10303;51.960;8.372;2022-08-27T08:46:32;0.93;;;0.73;;
20287;SDS011;10303;51.960;8.372;2022-08-27T08:49:28;0.77;;;0.53;;
20287;SDS011;10303;51.960;8.372;2022-08-27T08:55:06;1.80;;;1.00;;
20287;SDS011;10303;51.960;8.372;2022-08-27T09:00:41;2.40;;;0.87;;
20287;SDS011;10303;51.960;8.372;2022-08-27T09:03:34;2.13;;;0.80;;
20287;SDS011;10303;51.960;8.372;2022-08-27T09:06:16;0.90;;;0.60;;
20287;SDS011;10303;51.960;8.372;2022-08-27T09:09:47;0.77;;;0.60;;
20287;SDS011;10303;51.960;8.372;2022-08-27T09:12:42;1.00;;;0.70;;
20287;SDS011;10303;51.960;8.372;2022-08-27T09:20:52;0.80;;;0.80;;
20287;SDS011;10303;51.960;8.372;2022-08-27T09:24:08;0.67;;;0.67;;
20287;SDS011;10303;51.960;8.372;2022-08-27T09:26:50;1.00;;;0.70;;
20287;SDS011;10303;51.960;8.372;2022-08-27T09:29:18;1.37;;;0.67;;
20287;SDS011;10303;51.960;8.372;2022-08-27T09:34:48;1.80;;;0.87;;
20287;SDS011;10303;51.960;8.372;2022-08-27T09:37:26;0.97;;;0.70;;
20287;SDS011;10303;51.960;8.372;2022-08-27T09:39:59;1.07;;;0.90;;
20287;SDS011;10303;51.960;8.372;2022-08-27T09:45:08;1.50;;;1.00;;
20287;SDS011;10303;51.960;8.372;2022-08-27T09:47:52;1.27;;;1.00;;
20287;SDS011;10303;51.960;8.372;2022-08-27T09:50:39;1.20;;;0.80;;
20287;SDS011;10303;51.960;8.372;2022-08-27T09:53:20;0.60;;;0.60;;
20287;SDS011;10303;51.960;8.372;2022-08-27T09:56:09;0.97;;;0.67;;
20287;SDS011;10303;51.960;8.372;2022-08-27T09:59:06;2.87;;;1.13;;
20287;SDS011;10303;51.960;8.372;2022-08-27T10:04:32;0.60;;;0.60;;
20287;SDS011;10303;51.960;8.372;2022-08-27T10:12:49;1.00;;;0.80;;
20287;SDS011;10303;51.960;8.372;2022-08-27T10:24:59;1.30;;;1.00;;
20287;SDS011;10303;51.960;8.372;2022-08-27T10:30:46;4.87;;;1.00;;
20287;SDS011;10303;51.960;8.372;2022-08-27T10:36:29;1.63;;;0.93;;
20287;SDS011;10303;51.960;8.372;2022-08-27T10:39:16;1.63;;;0.80;;
20287;SDS011;10303;51.960;8.372;2022-08-27T10:53:54;1.00;;;0.83;;
20287;SDS011;10303;51.960;8.372;2022-08-27T10:56:32;2.07;;;1.10;;
20287;SDS011;10303;51.960;8.372;2022-08-27T10:59:34;1.13;;;0.80;;
20287;SDS011;10303;51.960;8.372;2022-08-27T11:02:29;2.23;;;1.30;;
20287;SDS011;10303;51.960;8.372;2022-08-27T11:05:03;2.60;;;0.90;;
20287;SDS011;10303;51.960;8.372;2022-08-27T11:07:39;1.73;;;1.10;;
20287;SDS011;10303;51.960;8.372;2022-08-27T11:10:28;2.27;;;1.03;;
20287;SDS011;10303;51.960;8.372;2022-08-27T11:13:03;3.70;;;1.20;;
20287;SDS011;10303;51.960;8.372;2022-08-27T11:15:37;2.53;;;1.50;;
20287;SDS011;10303;51.960;8.372;2022-08-27T11:18:19;1.93;;;1.20;;
20287;SDS011;10303;51.960;8.372;2022-08-27T11:21:15;0.97;;;0.97;;
20287;SDS011;10303;51.960;8.372;2022-08-27T11:23:54;2.05;;;1.10;;
20287;SDS011;10303;51.960;8.372;2022-08-27T11:26:48;2.07;;;1.23;;
20287;SDS011;10303;51.960;8.372;2022-08-27T11:29:23;2.13;;;1.20;;
20287;SDS011;10303;51.960;8.372;2022-08-27T11:35:19;3.28;;;1.23;;
20287;SDS011;10303;51.960;8.372;2022-08-27T11:43:47;1.15;;;1.10;;
20287;SDS011;10303;51.960;8.372;2022-08-27T11:46:23;2.45;;;1.02;;
20287;SDS011;10303;51.960;8.372;2022-08-27T11:48:57;2.10;;;1.38;;
20287;SDS011;10303;51.960;8.372;2022-08-27T11:51:29;1.52;;;1.42;;
20287;SDS011;10303;51.960;8.372;2022-08-27T11:54:05;2.22;;;1.08;;
20287;SDS011;10303;51.960;8.372;2022-08-27T11:56:39;1.02;;;0.93;;
20287;SDS011;10303;51.960;8.372;2022-08-27T11:59:49;1.58;;;1.27;;
20287;SDS011;10303;51.960;8.372;2022-08-27T12:02:19;2.83;;;1.65;;
20287;SDS011;10303;51.960;8.372;2022-08-27T12:05:05;2.83;;;1.80;;
20287;SDS011;10303;51.960;8.372;2022-08-27T12:07:43;3.80;;;1.77;;
20287;SDS011;10303;51.960;8.372;2022-08-27T12:21:43;2.25;;;1.30;;
20287;SDS011;10303;51.960;8.372;2022-08-27T12:24:52;1.33;;;1.08;;
20287;SDS011;10303;51.960;8.372;2022-08-27T12:30:01;1.40;;;1.30;;
20287;SDS011;10303;51.960;8.372;2022-08-27T12:35:47;4.65;;;1.52;;
20287;SDS011;10303;51.960;8.372;2022-08-27T12:38:17;4.10;;;2.28;;
20287;SDS011;10303;51.960;8.372;2022-08-27T12:43:22;5.28;;;2.97;;
20287;SDS011;10303;51.960;8.372;2022-08-27T12:45:55;2.05;;;1.40;;
20287;SDS011;10303;51.960;8.372;2022-08-27T12:48:27;3.72;;;1.40;;
20287;SDS011;10303;51.960;8.372;2022-08-27T12:51:02;1.73;;;1.63;;
20287;SDS011;10303;51.960;8.372;2022-08-27T12:53:38;2.78;;;1.65;;
20287;SDS011;10303;51.960;8.372;2022-08-27T12:59:36;3.08;;;2.20;;
20287;SDS011;10303;51.960;8.372;2022-08-27T13:02:32;2.03;;;1.63;;
20287;SDS011;10303;51.960;8.372;2022-08-27T13:05:42;1.88;;;1.75;;
20287;SDS011;10303;51.960;8.372;2022-08-27T13:08:27;2.05;;;1.60;;
20287;SDS011;10303;51.960;8.372;2022-08-27T13:11:09;2.60;;;1.27;;
20287;SDS011;10303;51.960;8.372;2022-08-27T13:13:48;3.15;;;1.60;;
20287;SDS011;10303;51.960;8.372;2022-08-27T13:16:16;5.18;;;1.70;;
20287;SDS011;10303;51.960;8.372;2022-08-27T13:18:48;1.98;;;1.40;;
20287;SDS011;10303;51.960;8.372;2022-08-27T13:21:26;3.08;;;1.50;;
20287;SDS011;10303;51.960;8.372;2022-08-27T13:24:04;4.10;;;1.83;;
20287;SDS011;10303;51.960;8.372;2022-08-27T13:26:32;1.50;;;1.40;;
20287;SDS011;10303;51.960;8.372;2022-08-27T13:29:06;3.00;;;1.25;;
20287;SDS011;10303;51.960;8.372;2022-08-27T13:31:33;2.63;;;1.30;;
20287;SDS011;10303;51.960;8.372;2022-08-27T13:34:02;4.32;;;1.60;;
20287;SDS011;10303;51.960;8.372;2022-08-27T13:36:34;3.33;;;1.42;;
20287;SDS011;10303;51.960;8.372;2022-08-27T13:39:14;3.83;;;1.75;;
20287;SDS011;10303;51.960;8.372;2022-08-27T13:41:40;1.30;;;1.20;;
20287;SDS011;10303;51.960;8.372;2022-08-27T13:44:07;2.35;;;1.20;;
20287;SDS011;10303;51.960;8.372;2022-08-27T13:46:47;2.58;;;1.58;;
20287;SDS011;10303;51.960;8.372;2022-08-27T13:49:24;1.92;;;1.48;;
20287;SDS011;10303;51.960;8.372;2022-08-27T13:52:36;4.50;;;1.42;;
20287;SDS011;10303;51.960;8.372;2022-08-27T13:55:26;1.70;;;1.33;;
20287;SDS011;10303;51.960;8.372;2022-08-27T13:57:55;1.88;;;1.23;;
20287;SDS011;10303;51.960;8.372;2022-08-27T14:02:57;1.42;;;1.10;;
20287;SDS011;10303;51.960;8.372;2022-08-27T14:05:29;2.22;;;1.38;;
20287;SDS011;10303;51.960;8.372;2022-08-27T14:08:09;1.10;;;1.00;;
20287;SDS011;10303;51.960;8.372;2022-08-27T14:10:40;0.80;;;0.80;;
20287;SDS011;10303;51.960;8.372;2022-08-27T14:15:44;3.78;;;1.63;;
20287;SDS011;10303;51.960;8.372;2022-08-27T14:18:31;2.22;;;0.85;;
20287;SDS011;10303;51.960;8.372;2022-08-27T14:21:01;1.65;;;1.08;;
20287;SDS011;10303;51.960;8.372;2022-08-27T14:23:28;5.65;;;1.50;;
20287;SDS011;10303;51.960;8.372;2022-08-27T14:25:58;1.40;;;1.13;;
20287;SDS011;10303;51.960;8.372;2022-08-27T14:28:26;1.10;;;1.00;;
20287;SDS011;10303;51.960;8.372;2022-08-27T14:30:52;1.00;;;1.00;;
20287;SDS011;10303;51.960;8.372;2022-08-27T14:33:18;2.20;;;1.20;;
20287;SDS011;10303;51.960;8.372;2022-08-27T14:35:44;2.15;;;1.52;;
20287;SDS011;10303;51.960;8.372;2022-08-27T14:40:43;2.92;;;1.48;;
20287;SDS011;10303;51.960;8.372;2022-08-27T14:43:14;2.05;;;1.17;;
20287;SDS011;10303;51.960;8.372;2022-08-27T14:45:41;1.00;;;0.77;;
20287;SDS011;10303;51.960;8.372;2022-08-27T14:48:10;0.90;;;0.70;;
20287;SDS011;10303;51.960;8.372;2022-08-27T14:50:44;1.27;;;0.80;;
20287;SDS011;10303;51.960;8.372;2022-08-27T14:53:11;0.95;;;0.70;;
20287;SDS011;10303;51.960;8.372;2022-08-27T14:55:37;2.10;;;1.15;;
20287;SDS011;10303;51.960;8.372;2022-08-27T14:58:04;2.88;;;1.38;;
20287;SDS011;10303;51.960;8.372;2022-08-27T15:00:29;1.65;;;1.17;;
20287;SDS011;10303;51.960;8.372;2022-08-27T15:02:56;1.95;;;1.00;;
20287;SDS011;10303;51.960;8.372;2022-08-27T15:05:23;1.58;;;0.70;;
20287;SDS011;10303;51.960;8.372;2022-08-27T15:07:52;1.83;;;1.10;;
20287;SDS011;10303;51.960;8.372;2022-08-27T15:10:20;0.80;;;0.80;;
20287;SDS011;10303;51.960;8.372;2022-08-27T15:12:46;1.85;;;0.90;;
20287;SDS011;10303;51.960;8.372;2022-08-27T15:15:12;1.55;;;0.90;;
20287;SDS011;10303;51.960;8.372;2022-08-27T15:17:39;1.40;;;0.90;;
20287;SDS011;10303;51.960;8.372;2022-08-27T15:20:07;2.00;;;0.73;;
20287;SDS011;10303;51.960;8.372;2022-08-27T15:22:37;0.85;;;0.70;;
20287;SDS011;10303;51.960;8.372;2022-08-27T15:25:07;1.17;;;0.82;;
20287;SDS011;10303;51.960;8.372;2022-08-27T15:27:34;1.38;;;0.88;;
20287;SDS011;10303;51.960;8.372;2022-08-27T15:30:03;1.70;;;0.93;;
20287;SDS011;10303;51.960;8.372;2022-08-27T15:32:36;1.98;;;0.90;;
20287;SDS011;10303;51.960;8.372;2022-08-27T15:35:08;0.93;;;0.73;;
20287;SDS011;10303;51.960;8.372;2022-08-27T15:37:38;1.52;;;0.50;;
20287;SDS011;10303;51.960;8.372;2022-08-27T15:40:06;2.38;;;1.23;;
20287;SDS011;10303;51.960;8.372;2022-08-27T15:42:33;1.15;;;0.98;;
20287;SDS011;10303;51.960;8.372;2022-08-27T15:44:59;1.15;;;1.05;;
20287;SDS011;10303;51.960;8.372;2022-08-27T15:47:26;2.03;;;0.98;;
20287;SDS011;10303;51.960;8.372;2022-08-27T15:49:52;3.40;;;1.05;;
20287;SDS011;10303;51.960;8.372;2022-08-27T15:52:18;0.82;;;0.82;;
20287;SDS011;10303;51.960;8.372;2022-08-27T15:54:46;1.95;;;0.90;;
20287;SDS011;10303;51.960;8.372;2022-08-27T15:57:17;2.78;;;0.90;;
20287;SDS011;10303;51.960;8.372;2022-08-27T15:59:45;1.15;;;1.02;;
20287;SDS011;10303;51.960;8.372;2022-08-27T16:02:13;3.35;;;0.95;;
20287;SDS011;10303;51.960;8.372;2022-08-27T16:04:44;3.38;;;1.20;;
20287;SDS011;10303;51.960;8.372;2022-08-27T16:07:10;0.90;;;0.82;;
20287;SDS011;10303;51.960;8.372;2022-08-27T16:09:38;2.50;;;0.98;;
20287;SDS011;10303;51.960;8.372;2022-08-27T16:12:04;0.90;;;0.75;;
20287;SDS011;10303;51.960;8.372;2022-08-27T16:14:30;4.00;;;1.27;;
20287;SDS011;10303;51.960;8.372;2022-08-27T16:16:56;0.73;;;0.70;;
20287;SDS011;10303;51.960;8.372;2022-08-27T16:19:23;0.60;;;0.57;;
20287;SDS011;10303;51.960;8.372;2022-08-27T16:21:49;1.25;;;0.90;;
20287;SDS011;10303;51.960;8.372;2022-08-27T16:24:17;1.33;;;0.85;;
20287;SDS011;10303;51.960;8.372;2022-08-27T16:26:45;3.42;;;1.05;;
20287;SDS011;10303;51.960;8.372;2022-08-27T16:29:12;1.20;;;1.05;;
20287;SDS011;10303;51.960;8.372;2022-08-27T16:31:39;2.92;;;0.85;;
20287;SDS011;10303;51.960;8.372;2022-08-27T16:34:06;1.65;;;0.93;;
20287;SDS011;10303;51.960;8.372;2022-08-27T16:36:39;1.33;;;0.70;;
20287;SDS011;10303;51.960;8.372;2022-08-27T16:39:05;0.63;;;0.60;;
20287;SDS011;10303;51.960;8.372;2022-08-27T16:41:31;0.80;;;0.60;;
20287;SDS011;10303;51.960;8.372;2022-08-27T16:43:57;1.00;;;0.90;;
20287;SDS011;10303;51.960;8.372;2022-08-27T16:46:24;1.45;;;0.77;;
20287;SDS011;10303;51.960;8.372;2022-08-27T16:48:50;0.73;;;0.63;;
20287;SDS011;10303;51.960;8.372;2022-08-27T16:51:35;0.90;;;0.70;;
20287;SDS011;10303;51.960;8.372;2022-08-27T16:54:02;2.05;;;1.05;;
20287;SDS011;10303;51.960;8.372;2022-08-27T16:56:31;5.88;;;1.05;;